createdAt,value
2018-05-21T00:00:32.819Z,59.65
2018-05-21T00:05:41.803Z,61.18
2018-05-21T00:08:12.879Z,61.26
2018-05-21T00:10:44.259Z,61.96
2018-05-21T00:13:15.555Z,61.81
2018-05-21T00:15:46.510Z,62.49
2018-05-21T00:18:17.535Z,58.64
2018-05-21T00:20:49.076Z,60.33
2018-05-21T00:23:20.083Z,58.51
2018-05-21T00:25:51.477Z,57.26
2018-05-21T00:28:22.514Z,58.89
2018-05-21T00:30:53.863Z,59.89
2018-05-21T00:33:24.876Z,58.39
2018-05-21T00:35:56.264Z,57.78
2018-05-21T00:38:28.068Z,58.89
2018-05-21T00:40:59.275Z,60.42
2018-05-21T00:43:30.354Z,61.62
2018-05-21T00:46:01.623Z,62.29
2018-05-21T00:48:32.607Z,62.56
2018-05-21T00:51:09.727Z,63.78
2018-05-21T00:53:41.179Z,61.95
2018-05-21T00:56:12.455Z,61.60
2018-05-21T00:58:43.906Z,63.07
2018-05-21T01:01:16.399Z,61.96
2018-05-21T01:03:47.454Z,62.03
2018-05-21T01:06:18.423Z,60.23
2018-05-21T01:08:50.277Z,64.09
2018-05-21T01:11:21.283Z,64.46
2018-05-21T01:13:52.298Z,64.49
2018-05-21T01:16:23.998Z,64.75
2018-05-21T01:18:55.316Z,65.19
2018-05-21T01:21:26.359Z,64.44
2018-05-21T01:23:57.670Z,66.15
2018-05-21T01:26:28.599Z,63.94
2018-05-21T01:29:00.003Z,60.42
2018-05-21T01:31:31.338Z,59.92
2018-05-21T01:34:02.363Z,60.29
2018-05-21T01:36:36.371Z,59.06
2018-05-21T01:39:08.827Z,58.02
2018-05-21T01:41:39.842Z,61.66
2018-05-21T01:44:11.088Z,58.77
2018-05-21T01:46:42.140Z,58.63
2018-05-21T01:49:13.150Z,58.27
2018-05-21T01:51:44.478Z,58.35
2018-05-21T01:54:15.531Z,58.98
2018-05-21T01:56:47.106Z,58.63
2018-05-21T01:59:18.361Z,58.50
2018-05-21T02:01:49.576Z,58.37
2018-05-21T02:04:21.381Z,58.34
2018-05-21T02:06:53.643Z,58.45
2018-05-21T02:09:25.063Z,59.31
2018-05-21T02:11:56.054Z,61.50
2018-05-21T02:14:28.246Z,61.02
2018-05-21T02:16:59.745Z,61.74
2018-05-21T02:19:31.223Z,60.08
2018-05-21T02:22:03.195Z,59.53
2018-05-21T02:24:34.711Z,63.72
2018-05-21T02:27:06.536Z,63.77
2018-05-21T02:29:37.771Z,65.87
2018-05-21T02:32:09.182Z,66.54
2018-05-21T02:34:40.632Z,66.06
2018-05-21T02:37:11.678Z,65.72
2018-05-21T02:39:43.304Z,66.91
2018-05-21T02:42:14.593Z,67.44
2018-05-21T02:44:45.610Z,67.49
2018-05-21T02:47:16.935Z,68.26
2018-05-21T02:49:47.893Z,68.99
2018-05-21T02:52:18.853Z,67.41
2018-05-21T02:54:50.156Z,68.00
2018-05-21T02:57:21.286Z,64.01
2018-05-21T02:59:56.607Z,62.41
2018-05-21T03:02:28.362Z,61.71
2018-05-21T03:05:00.163Z,61.69
2018-05-21T03:07:31.687Z,64.76
2018-05-21T03:10:02.941Z,63.90
2018-05-21T03:12:34.510Z,62.75
2018-05-21T03:15:06.686Z,64.66
2018-05-21T03:17:38.595Z,62.68
2018-05-21T03:20:20.080Z,63.41
2018-05-21T03:22:51.294Z,62.53
2018-05-21T03:25:22.903Z,65.83
2018-05-21T03:27:54.251Z,63.68
2018-05-21T03:30:26.186Z,65.70
2018-05-21T03:32:57.582Z,63.21
2018-05-21T03:35:29.138Z,65.30
2018-05-21T03:38:00.377Z,66.30
2018-05-21T03:40:31.426Z,64.62
2018-05-21T03:43:03.083Z,65.92
2018-05-21T03:45:34.467Z,65.87
2018-05-21T03:48:06.008Z,63.87
2018-05-21T03:50:38.099Z,64.77
2018-05-21T03:53:09.482Z,64.29
2018-05-21T03:55:44.535Z,65.93
2018-05-21T03:58:53.674Z,65.20
2018-05-21T04:01:36.595Z,67.35
2018-05-21T04:04:08.380Z,67.08
2018-05-21T04:06:40.514Z,64.85
2018-05-21T04:09:11.555Z,66.25
2018-05-21T04:11:43.726Z,66.28
2018-05-21T04:14:15.378Z,64.46
2018-05-21T04:16:46.956Z,66.20
2018-05-21T04:19:18.021Z,66.82
2018-05-21T04:21:49.628Z,67.35
2018-05-21T04:24:21.309Z,67.27
2018-05-21T04:26:52.855Z,65.62
2018-05-21T04:29:35.556Z,63.12
2018-05-21T04:32:07.390Z,64.62
2018-05-21T04:34:54.717Z,61.83
2018-05-21T04:37:26.346Z,63.41
2018-05-21T04:39:57.705Z,63.35
2018-05-21T04:42:29.310Z,62.39
2018-05-21T04:45:01.027Z,61.93
2018-05-21T04:47:32.824Z,62.28
2018-05-21T04:50:04.832Z,62.99
2018-05-21T04:52:36.446Z,66.04
2018-05-21T04:55:07.966Z,65.79
2018-05-21T04:57:39.346Z,63.45
2018-05-21T05:00:10.608Z,64.16
2018-05-21T05:02:42.067Z,61.93
2018-05-21T05:05:13.147Z,62.11
2018-05-21T05:07:46.471Z,63.68
2018-05-21T05:10:17.419Z,62.95
2018-05-21T05:12:49.047Z,61.56
2018-05-21T05:15:21.111Z,61.47
2018-05-21T05:17:52.554Z,63.90
2018-05-21T05:20:23.906Z,62.52
2018-05-21T05:22:55.847Z,63.46
2018-05-21T05:25:28.087Z,64.48
2018-05-21T05:27:59.492Z,64.58
2018-05-21T06:12:44.836Z,58.85
2018-05-21T06:15:16.117Z,57.73
2018-05-21T06:17:47.683Z,55.86
2018-05-21T06:20:19.286Z,57.10
2018-05-21T06:22:50.982Z,57.54
2018-05-21T06:25:22.882Z,55.67
2018-05-21T06:27:54.328Z,55.28
2018-05-21T06:30:25.363Z,54.54
2018-05-21T06:32:57.489Z,54.18
2018-05-21T06:35:28.660Z,53.88
2018-05-21T06:38:00.522Z,54.09
2018-05-21T06:40:31.561Z,54.20
2018-05-21T06:43:02.670Z,52.16
2018-05-21T06:45:34.556Z,52.48
2018-05-21T06:48:06.101Z,52.90
2018-05-21T06:50:44.357Z,51.29
2018-05-21T06:53:22.184Z,50.62
2018-05-21T06:55:53.242Z,51.37
2018-05-21T06:58:24.777Z,51.18
2018-05-21T07:00:59.891Z,49.82
2018-05-21T07:03:31.146Z,48.75
2018-05-21T07:06:16.282Z,50.18
2018-05-21T07:08:48.139Z,50.88
2018-05-21T07:11:25.565Z,49.67
2018-05-21T07:13:57.668Z,49.45
2018-05-21T07:16:29.434Z,48.94
2018-05-21T07:19:00.643Z,49.86
2018-05-21T07:21:32.076Z,49.99
2018-05-21T07:24:03.331Z,47.06
2018-05-21T07:26:34.598Z,46.00
2018-05-21T07:29:05.699Z,46.12
2018-05-21T07:31:36.978Z,44.87
2018-05-21T07:34:09.702Z,47.57
2018-05-21T07:36:41.111Z,46.13
2018-05-21T07:39:12.764Z,45.23
2018-05-21T07:41:44.535Z,47.11
2018-05-21T07:44:32.813Z,45.86
2018-05-21T07:47:10.675Z,45.35
2018-05-21T07:49:42.832Z,44.66
2018-05-21T07:52:15.288Z,44.63
2018-05-21T07:54:46.687Z,44.81
2018-05-21T07:57:22.063Z,44.84
2018-05-21T07:59:53.869Z,46.79
2018-05-21T08:02:25.020Z,43.94
2018-05-21T08:04:57.099Z,43.90
2018-05-21T08:07:28.138Z,43.38
2018-05-21T08:10:01.591Z,43.89
2018-05-21T08:12:33.887Z,42.73
2018-05-21T08:15:05.538Z,42.31
2018-05-21T08:17:37.895Z,42.39
2018-05-21T08:20:18.863Z,41.60
2018-05-21T08:22:50.323Z,41.37
2018-05-21T08:25:24.366Z,42.10
2018-05-21T08:27:55.709Z,40.94
2018-05-21T08:30:28.319Z,41.71
2018-05-21T08:33:02.947Z,40.35
2018-05-21T08:35:46.555Z,42.01
2018-05-21T08:38:22.071Z,39.96
2018-05-21T08:40:59.288Z,41.38
2018-05-21T08:43:31.113Z,41.63
2018-05-21T08:46:06.767Z,39.49
2018-05-21T08:48:40.529Z,39.08
2018-05-21T08:54:02.805Z,39.99
2018-05-21T08:56:35.373Z,39.89
2018-05-21T08:59:07.915Z,39.33
2018-05-21T09:01:40.394Z,38.93
2018-05-21T09:04:19.918Z,38.18
2018-05-21T09:06:52.290Z,37.49
2018-05-21T09:09:27.410Z,38.56
2018-05-21T09:12:08.242Z,37.49
2018-05-21T09:14:40.701Z,37.22
2018-05-21T09:17:12.586Z,37.44
2018-05-21T09:23:23.397Z,35.80
2018-05-21T09:25:58.407Z,36.03
2018-05-21T09:28:41.567Z,36.24
2018-05-21T09:36:43.744Z,36.98
2018-05-21T09:39:18.679Z,36.04
2018-05-21T09:41:50.291Z,34.61
2018-05-21T09:44:21.616Z,36.35
2018-05-21T09:46:52.650Z,37.06
2018-05-21T09:49:23.863Z,36.15
2018-05-21T09:51:55.714Z,35.98
2018-05-21T09:54:26.915Z,34.43
2018-05-21T09:56:59.074Z,33.94
2018-05-21T09:59:41.543Z,34.14
2018-05-21T10:02:15.031Z,35.20
2018-05-21T10:04:46.246Z,33.90
2018-05-21T10:07:25.196Z,34.62
2018-05-21T10:09:57.498Z,33.66
2018-05-21T10:12:30.490Z,32.88
2018-05-21T10:15:02.304Z,33.09
2018-05-21T10:17:33.903Z,33.48
2018-05-21T10:20:07.931Z,33.68
2018-05-21T10:22:43.387Z,34.12
2018-05-21T10:25:19.235Z,33.34
2018-05-21T10:27:51.187Z,33.73
2018-05-21T10:30:22.323Z,34.38
2018-05-21T10:32:53.689Z,33.28
2018-05-21T10:38:00.478Z,34.11
2018-05-21T10:40:32.020Z,32.43
2018-05-21T10:43:11.719Z,34.31
2018-05-21T10:46:05.604Z,33.30
2018-05-21T10:48:59.235Z,33.63
2018-05-21T10:51:53.706Z,32.26
2018-05-21T10:54:47.234Z,33.68
2018-05-21T10:57:41.047Z,32.02
2018-05-21T11:00:35.320Z,32.43
2018-05-21T11:03:28.834Z,32.07
2018-05-21T11:06:22.427Z,31.53
2018-05-21T11:09:16.021Z,31.69
2018-05-21T11:12:09.969Z,33.04
2018-05-21T11:15:03.559Z,31.90
2018-05-21T11:17:57.404Z,33.48
2018-05-21T11:20:50.775Z,32.43
2018-05-21T11:23:37.242Z,32.65
2018-05-21T11:26:08.788Z,34.14
2018-05-21T11:28:40.526Z,31.44
2018-05-21T11:31:12.260Z,32.39
2018-05-21T11:33:44.387Z,32.79
2018-05-21T11:36:15.488Z,32.19
2018-05-21T11:38:46.548Z,32.24
2018-05-21T11:41:17.923Z,33.25
2018-05-21T11:43:51.020Z,34.39
2018-05-21T11:46:23.297Z,32.22
2018-05-21T11:48:54.615Z,32.58
2018-05-21T11:51:25.668Z,31.74
2018-05-21T11:53:59.505Z,32.79
2018-05-21T11:56:30.548Z,32.15
2018-05-21T11:59:01.875Z,32.28
2018-05-21T12:01:33.517Z,32.15
2018-05-21T12:04:04.609Z,32.14
2018-05-21T12:06:36.006Z,31.69
2018-05-21T12:09:08.574Z,32.23
2018-05-21T12:11:39.629Z,32.16
2018-05-21T12:14:10.955Z,32.12
2018-05-21T12:16:42.358Z,31.83
2018-05-21T12:19:14.455Z,31.58
2018-05-21T12:21:45.558Z,30.21
2018-05-21T12:24:17.059Z,32.50
2018-05-21T12:26:48.419Z,31.04
2018-05-21T12:29:19.579Z,31.59
2018-05-21T12:31:51.042Z,31.44
2018-05-21T12:34:22.619Z,32.82
2018-05-21T12:36:54.079Z,32.22
2018-05-21T12:39:25.497Z,31.76
2018-05-21T12:41:56.708Z,30.68
2018-05-21T12:44:29.318Z,32.71
2018-05-21T12:47:01.652Z,31.30
2018-05-21T12:49:36.911Z,32.95
2018-05-21T12:52:09.791Z,30.98
2018-05-21T12:54:40.992Z,30.59
2018-05-21T12:57:12.214Z,30.67
2018-05-21T12:59:44.576Z,34.09
2018-05-21T13:02:15.641Z,32.17
2018-05-21T13:04:53.447Z,31.22
2018-05-21T13:07:24.439Z,30.91
2018-05-21T13:09:55.433Z,30.75
2018-05-21T13:12:28.668Z,30.81
2018-05-21T13:15:00.693Z,30.13
2018-05-21T13:17:32.870Z,30.70
2018-05-21T13:20:05.439Z,30.84
2018-05-21T13:22:37.426Z,29.76
2018-05-21T13:25:09.497Z,30.79
2018-05-21T13:27:41.562Z,28.80
2018-05-21T13:30:12.753Z,29.14
2018-05-21T13:32:44.199Z,31.25
2018-05-21T13:35:15.180Z,30.93
2018-05-21T13:37:47.038Z,30.78
2018-05-21T13:40:21.023Z,32.44
2018-05-21T13:42:52.006Z,30.35
2018-05-21T13:45:23.307Z,30.88
2018-05-21T13:47:56.356Z,31.88
2018-05-21T13:50:28.620Z,30.59
2018-05-21T13:53:00.569Z,32.46
2018-05-21T13:55:43.259Z,31.25
2018-05-21T14:01:07.430Z,31.54
2018-05-21T14:03:39.180Z,31.20
2018-05-21T14:06:10.325Z,32.10
2018-05-21T14:08:41.375Z,29.84
2018-05-21T14:11:41.593Z,30.23
2018-05-21T14:14:13.531Z,30.29
2018-05-21T14:16:44.695Z,31.44
2018-05-21T14:23:48.058Z,30.59
2018-05-21T14:26:22.658Z,30.32
2018-05-21T14:28:54.895Z,29.55
2018-05-21T14:31:33.023Z,30.84
2018-05-21T14:36:44.804Z,31.95
2018-05-21T14:39:16.229Z,32.83
2018-05-21T14:41:49.239Z,32.27
2018-05-21T14:44:21.768Z,30.30
2018-05-21T14:46:54.675Z,30.47
2018-05-21T14:49:26.558Z,30.13
2018-05-21T14:51:57.879Z,30.78
2018-05-21T14:54:36.886Z,31.72
2018-05-21T14:57:08.275Z,30.47
2018-05-21T14:59:40.749Z,31.07
2018-05-21T15:02:11.999Z,30.95
2018-05-21T15:04:50.384Z,30.92
2018-05-21T15:07:27.746Z,31.37
2018-05-21T15:09:59.895Z,31.22
2018-05-21T15:12:31.670Z,30.93
2018-05-21T15:15:07.114Z,30.54
2018-05-21T15:17:40.645Z,30.74
2018-05-21T15:20:12.298Z,31.96
2018-05-21T15:22:43.291Z,32.37
2018-05-21T15:25:14.686Z,32.12
2018-05-21T15:27:46.195Z,31.81
2018-05-21T15:30:17.407Z,32.55
2018-05-21T15:32:48.599Z,32.21
2018-05-21T15:35:20.087Z,31.88
2018-05-21T15:37:51.306Z,31.08
2018-05-21T15:40:22.728Z,31.61
2018-05-21T15:42:53.691Z,32.08
2018-05-21T15:45:25.027Z,31.90
2018-05-21T15:47:57.312Z,32.69
2018-05-21T15:50:28.386Z,31.84
2018-05-21T15:52:59.859Z,32.34
2018-05-21T15:55:31.244Z,33.52
2018-05-21T15:58:02.342Z,32.79
2018-05-21T16:00:36.163Z,33.12
2018-05-21T16:05:52.859Z,32.67
2018-05-21T16:08:24.376Z,32.29
2018-05-21T16:10:55.382Z,32.67
2018-05-21T16:13:26.778Z,32.69
2018-05-21T16:15:57.796Z,33.70
2018-05-21T16:18:29.063Z,32.77
2018-05-21T16:21:02.387Z,34.26
2018-05-21T16:23:34.158Z,34.55
2018-05-21T16:26:05.358Z,34.67
2018-05-21T16:28:36.676Z,35.16
2018-05-21T16:31:07.831Z,36.22
2018-05-21T16:33:39.429Z,35.28
2018-05-21T16:36:10.506Z,34.53
2018-05-21T16:38:41.534Z,33.90
2018-05-21T16:41:13.003Z,34.67
2018-05-21T16:43:44.292Z,34.54
2018-05-21T16:46:17.364Z,34.99
2018-05-21T16:48:48.796Z,34.32
2018-05-21T16:51:20.155Z,35.19
2018-05-21T16:53:51.530Z,35.30
2018-05-21T16:56:22.558Z,34.87
2018-05-21T16:58:53.638Z,35.80
2018-05-21T17:01:25.119Z,34.97
2018-05-21T17:03:56.145Z,34.53
2018-05-21T17:06:27.787Z,34.83
2018-05-21T17:08:59.306Z,35.31
2018-05-21T17:11:30.565Z,35.04
2018-05-21T17:14:02.028Z,35.88
2018-05-21T17:16:33.216Z,36.29
2018-05-21T17:19:04.455Z,35.97
2018-05-21T17:21:35.904Z,35.51
2018-05-21T17:24:08.427Z,35.69
2018-05-21T17:26:39.699Z,35.85
2018-05-21T17:29:11.547Z,35.54
2018-05-21T17:31:43.111Z,36.91
2018-05-21T17:34:14.858Z,37.89
2018-05-21T17:36:46.102Z,37.63
2018-05-21T17:39:17.197Z,37.39
2018-05-21T17:41:48.804Z,37.00
2018-05-21T17:44:20.340Z,36.99
2018-05-21T17:46:55.422Z,36.91
2018-05-21T17:49:26.764Z,37.45
2018-05-21T17:51:57.799Z,37.60
2018-05-21T17:54:28.910Z,37.72
2018-05-21T17:57:00.223Z,38.26
2018-05-21T17:59:31.188Z,37.35
2018-05-21T18:02:02.852Z,38.11
2018-05-21T18:04:34.307Z,38.86
2018-05-21T18:07:05.446Z,38.68
2018-05-21T18:09:36.906Z,38.14
2018-05-21T18:12:12.892Z,38.12
2018-05-21T18:14:54.859Z,38.24
2018-05-21T18:17:26.731Z,38.97
2018-05-21T18:19:57.939Z,38.85
2018-05-21T18:22:29.682Z,38.80
2018-05-21T18:25:11.003Z,39.37
2018-05-21T18:27:42.791Z,39.53
2018-05-21T18:30:14.215Z,40.65
2018-05-21T18:32:48.817Z,40.01
2018-05-21T18:35:22.253Z,40.54
2018-05-21T18:37:53.371Z,41.22
2018-05-21T18:40:25.310Z,40.14
2018-05-21T18:42:57.103Z,41.13
2018-05-21T18:45:28.312Z,41.29
2018-05-21T18:47:59.346Z,40.94
2018-05-21T18:50:31.749Z,41.24
2018-05-21T18:53:12.967Z,41.94
2018-05-21T18:55:44.587Z,41.90
2018-05-21T18:58:19.267Z,41.81
2018-05-21T19:00:51.813Z,41.70
2018-05-21T19:03:28.079Z,41.36
2018-05-21T19:06:00.557Z,42.20
2018-05-21T19:08:32.965Z,41.97
2018-05-21T19:11:04.638Z,41.71
2018-05-21T19:13:36.062Z,42.06
2018-05-21T19:16:07.429Z,42.46
2018-05-21T19:18:41.027Z,42.79
2018-05-21T19:21:16.214Z,43.59
2018-05-21T19:23:50.689Z,43.08
2018-05-21T19:26:21.820Z,43.99
2018-05-21T19:28:53.868Z,43.75
2018-05-21T19:31:25.400Z,43.25
2018-05-21T19:34:26.939Z,43.84
2018-05-21T19:37:05.331Z,43.14
2018-05-21T19:39:36.492Z,44.07
2018-05-21T19:42:08.048Z,43.98
2018-05-21T19:44:41.229Z,44.04
2018-05-21T19:47:12.318Z,45.42
2018-05-21T19:49:46.880Z,44.63
2018-05-21T19:52:19.223Z,45.81
2018-05-21T19:54:50.845Z,45.78
2018-05-21T19:57:23.686Z,47.40
2018-05-21T19:59:55.523Z,48.10
2018-05-21T20:02:27.047Z,47.99
2018-05-21T20:04:58.899Z,47.94
2018-05-21T20:07:30.523Z,46.96
2018-05-21T20:10:05.943Z,47.92
2018-05-21T20:12:37.470Z,46.89
2018-05-21T20:15:09.500Z,47.36
2018-05-21T20:17:41.051Z,48.13
2018-05-21T20:20:12.534Z,48.68
2018-05-21T20:22:43.820Z,48.20
2018-05-21T20:25:15.401Z,49.28
2018-05-21T20:27:46.965Z,49.64
2018-05-21T20:30:18.171Z,50.23
2018-05-21T20:32:49.271Z,51.37
2018-05-21T20:35:20.673Z,50.58
2018-05-21T20:37:51.961Z,50.13
2018-05-21T20:40:25.939Z,49.73
2018-05-21T20:42:57.023Z,49.26
2018-05-21T20:45:28.585Z,50.10
2018-05-21T20:48:00.248Z,50.47
2018-05-21T20:50:31.335Z,50.91
2018-05-21T20:53:03.367Z,50.64
2018-05-21T20:55:34.386Z,50.80
2018-05-21T20:58:05.707Z,51.72
2018-05-21T21:00:39.666Z,49.96
2018-05-21T21:03:10.778Z,49.87
2018-05-21T21:05:45.045Z,49.59
2018-05-21T21:08:16.020Z,50.59
2018-05-21T21:10:47.931Z,51.61
2018-05-21T21:13:22.000Z,51.39
2018-05-21T21:15:53.928Z,52.54
2018-05-21T21:18:26.005Z,52.52
2018-05-21T21:20:57.815Z,53.37
2018-05-21T21:23:29.008Z,52.69
2018-05-21T21:26:00.363Z,54.23
2018-05-21T21:28:34.160Z,52.92
2018-05-21T21:31:07.896Z,53.99
2018-05-21T21:33:39.196Z,55.40
2018-05-21T21:36:10.713Z,55.63
2018-05-21T21:38:42.271Z,55.76
2018-05-21T21:41:13.568Z,56.27
2018-05-21T21:43:45.107Z,56.44
2018-05-21T21:46:16.088Z,55.35
2018-05-21T21:48:47.394Z,53.19
2018-05-21T21:51:18.789Z,53.65
2018-05-21T21:53:50.102Z,53.97
2018-05-21T21:56:21.707Z,53.02
2018-05-21T21:58:52.890Z,53.29
2018-05-21T22:01:35.286Z,53.05
2018-05-21T22:04:06.599Z,51.30
2018-05-21T22:06:37.902Z,51.77
2018-05-21T22:09:09.694Z,54.87
2018-05-21T22:11:42.126Z,51.60
2018-05-21T22:14:13.176Z,51.29
2018-05-21T22:16:44.192Z,52.62
2018-05-21T22:19:15.558Z,52.19
2018-05-21T22:21:46.527Z,51.47
2018-05-21T22:24:17.537Z,51.63
2018-05-21T22:26:48.843Z,51.42
2018-05-21T22:29:19.910Z,53.04
2018-05-21T22:31:51.417Z,54.25
2018-05-21T22:34:22.687Z,54.99
2018-05-21T22:36:54.107Z,54.21
2018-05-21T22:39:25.097Z,54.17
2018-05-21T22:41:56.359Z,54.59
2018-05-21T22:44:27.567Z,55.12
2018-05-21T22:46:58.556Z,55.63
2018-05-21T22:49:29.843Z,55.39
2018-05-21T22:52:00.829Z,54.38
2018-05-21T22:54:38.796Z,55.42
2018-05-21T22:57:14.892Z,52.99
2018-05-21T22:59:50.718Z,53.04
2018-05-21T23:02:22.534Z,56.20
2018-05-21T23:04:54.047Z,56.73
2018-05-21T23:07:24.947Z,54.53
2018-05-21T23:09:56.979Z,55.48
2018-05-21T23:12:27.982Z,56.64
2018-05-21T23:14:59.302Z,57.78
2018-05-21T23:17:33.355Z,55.39
2018-05-21T23:20:04.397Z,56.53
2018-05-21T23:25:23.771Z,57.00
2018-05-21T23:27:55.365Z,55.88
2018-05-21T23:30:26.871Z,56.49
2018-05-21T23:32:58.771Z,57.05
2018-05-21T23:35:30.047Z,59.38
2018-05-21T23:38:01.848Z,55.08
2018-05-21T23:50:08.327Z,59.46
2018-05-21T23:52:39.620Z,60.24
2018-05-21T23:55:10.643Z,61.25
2018-05-21T23:57:42.395Z,61.31
